Time;durP1;ratioP1;P1;durP2;ratioP2;P2;SDS_P1;SDS_P2;PMS_P1;PMS_P2;Temp;Humidity;BMP_temperature;BMP_pressure;BME280_temperature;BME280_humidity;BME280_pressure;Samples;Min_cycle;Max_cycle;Signal;HPM_P1;HPM_P2
2023/01/09 00:02:25;;;;;;;10.40;7.23;;;6.70;99.90;;;;;;5072858;28;20213;-73
2023/01/09 00:04:50;;;;;;;9.83;6.77;;;6.80;99.90;;;;;;5074264;28;20285;-74
2023/01/09 00:07:16;;;;;;;10.70;7.03;;;6.70;99.90;;;;;;5064948;28;20290;-74
2023/01/09 00:09:41;;;;;;;13.70;7.17;;;6.70;99.90;;;;;;5070301;28;20809;-75
2023/01/09 00:12:07;;;;;;;10.40;7.27;;;6.60;99.90;;;;;;5056443;28;20191;-75
2023/01/09 00:14:33;;;;;;;12.03;6.67;;;6.60;99.90;;;;;;5051962;28;20203;-74
2023/01/09 00:16:58;;;;;;;12.47;7.37;;;6.60;99.90;;;;;;5071935;28;20282;-75
2023/01/09 00:19:24;;;;;;;11.20;7.17;;;6.50;99.90;;;;;;5069224;28;20572;-74
2023/01/09 00:21:49;;;;;;;10.77;7.30;;;6.50;99.90;;;;;;5073158;28;20218;-75
2023/01/09 00:24:15;;;;;;;9.73;7.27;;;6.50;99.90;;;;;;5056158;28;20206;-74
2023/01/09 00:26:40;;;;;;;10.20;7.07;;;6.50;99.90;;;;;;5063468;28;20166;-74
2023/01/09 00:29:09;;;;;;;12.00;7.30;;;6.50;99.90;;;;;;5072839;28;20251;-75
2023/01/09 00:31:34;;;;;;;10.80;7.80;;;6.50;99.90;;;;;;5076592;28;20227;-75
2023/01/09 00:34:04;;;;;;;11.97;7.80;;;6.50;99.90;;;;;;5058737;28;20600;-74
2023/01/09 00:36:30;;;;;;;10.60;7.20;;;6.40;99.90;;;;;;5073143;28;20260;-75
2023/01/09 00:38:56;;;;;;;13.17;7.97;;;6.40;99.90;;;;;;5081467;28;20562;-74
2023/01/09 00:41:36;;;;;;;10.80;7.47;;;6.30;99.90;;;;;;5072424;28;20195;-75
2023/01/09 00:44:11;;;;;;;10.63;7.70;;;6.30;99.90;;;;;;5077588;28;20202;-74
2023/01/09 00:46:41;;;;;;;12.90;7.80;;;6.30;99.90;;;;;;5073436;28;20259;-74
2023/01/09 00:49:08;;;;;;;11.17;7.87;;;6.30;99.90;;;;;;5075395;28;20261;-74
2023/01/09 00:51:34;;;;;;;11.77;8.13;;;6.30;99.90;;;;;;5072771;28;20270;-76
2023/01/09 00:54:01;;;;;;;12.07;7.83;;;6.30;99.90;;;;;;5070924;28;20887;-74
2023/01/09 00:56:27;;;;;;;10.60;7.23;;;6.30;99.90;;;;;;5076887;28;20210;-74
2023/01/09 00:58:53;;;;;;;11.73;8.27;;;6.30;99.90;;;;;;5074293;28;20562;-73
2023/01/09 01:01:19;;;;;;;12.73;7.93;;;6.30;99.90;;;;;;5071786;28;20235;-72
2023/01/09 01:03:44;;;;;;;11.60;8.33;;;6.30;99.90;;;;;;5076017;28;20303;-73
2023/01/09 01:08:55;;;;;;;13.30;8.83;;;6.20;99.90;;;;;;5076082;28;20178;-72
2023/01/09 01:11:21;;;;;;;13.87;9.07;;;6.10;99.90;;;;;;5081221;28;20237;-73
2023/01/09 01:13:47;;;;;;;12.77;8.90;;;6.10;99.90;;;;;;5075485;28;20241;-73
2023/01/09 01:16:13;;;;;;;12.37;8.87;;;6.00;99.90;;;;;;5081212;28;20665;-72
2023/01/09 01:18:39;;;;;;;16.47;8.70;;;6.10;99.90;;;;;;5062467;28;20218;-73
2023/01/09 01:21:10;;;;;;;13.70;9.30;;;6.00;99.90;;;;;;5077697;28;20191;-73
2023/01/09 01:23:36;;;;;;;13.17;9.37;;;6.10;99.90;;;;;;5080957;28;20272;-72
2023/01/09 01:26:15;;;;;;;13.40;9.10;;;6.00;99.90;;;;;;5074206;28;20668;-73
2023/01/09 01:28:41;;;;;;;14.03;9.30;;;6.10;99.90;;;;;;5077272;28;20245;-75
2023/01/09 01:31:07;;;;;;;12.50;9.67;;;6.00;99.90;;;;;;5079786;28;20203;-73
2023/01/09 01:33:34;;;;;;;14.30;10.07;;;6.10;99.90;;;;;;5062953;28;20211;-73
2023/01/09 01:36:04;;;;;;;14.77;9.97;;;6.00;99.90;;;;;;5080074;28;20179;-73
2023/01/09 01:38:30;;;;;;;14.43;9.80;;;6.00;99.90;;;;;;5059225;28;20634;-72
2023/01/09 01:40:56;;;;;;;14.30;9.73;;;6.00;99.90;;;;;;5080764;28;20585;-73
2023/01/09 01:43:21;;;;;;;14.13;9.80;;;5.90;99.90;;;;;;5082304;28;20213;-74
2023/01/09 01:45:47;;;;;;;14.67;9.87;;;6.00;99.90;;;;;;5080275;28;20206;-74
2023/01/09 01:48:28;;;;;;;18.17;9.97;;;5.90;99.90;;;;;;5079494;28;20653;-73
2023/01/09 01:51:02;;;;;;;14.47;9.63;;;5.90;99.90;;;;;;5079756;28;20210;-74
2023/01/09 01:53:37;;;;;;;13.50;9.20;;;5.90;99.90;;;;;;5078275;28;20237;-73
2023/01/09 01:56:24;;;;;;;14.20;10.37;;;5.90;99.90;;;;;;5061509;28;20572;-73
2023/01/09 01:59:10;;;;;;;14.57;9.90;;;5.90;99.90;;;;;;5062189;28;20641;-73
2023/01/09 02:01:39;;;;;;;15.00;10.03;;;5.90;99.90;;;;;;5082334;28;20214;-74
2023/01/09 02:04:06;;;;;;;14.97;10.13;;;5.90;99.90;;;;;;5061811;28;20211;-73
2023/01/09 02:06:33;;;;;;;16.13;10.10;;;5.90;99.90;;;;;;5080195;28;20213;-74
2023/01/09 02:09:02;;;;;;;15.33;10.43;;;5.90;99.90;;;;;;5080293;28;20735;-74
2023/01/09 02:11:28;;;;;;;15.00;10.27;;;5.90;99.90;;;;;;5063721;28;20216;-74
2023/01/09 02:13:54;;;;;;;14.07;10.27;;;5.90;99.90;;;;;;5078869;28;20205;-74
2023/01/09 02:16:56;;;;;;;14.77;9.93;;;5.90;99.90;;;;;;5081078;28;20873;-74
2023/01/09 02:19:45;;;;;;;15.13;9.70;;;5.80;99.90;;;;;;5059948;28;20205;-73
2023/01/09 02:22:18;;;;;;;14.67;10.17;;;5.80;99.90;;;;;;5079018;28;20267;-74
2023/01/09 02:24:43;;;;;;;15.93;11.00;;;5.80;99.90;;;;;;5080588;28;20270;-73
2023/01/09 02:27:15;;;;;;;15.40;10.63;;;5.70;99.90;;;;;;5078494;28;20540;-74
2023/01/09 02:30:00;;;;;;;16.37;10.67;;;5.70;99.90;;;;;;5075349;28;20254;-74
2023/01/09 02:32:55;;;;;;;18.27;11.60;;;5.70;99.90;;;;;;5082369;28;20221;-74
2023/01/09 02:35:23;;;;;;;14.67;10.47;;;5.70;99.90;;;;;;5080187;28;20201;-74
2023/01/09 02:38:11;;;;;;;16.47;11.20;;;5.60;99.90;;;;;;5062138;28;20651;-74
2023/01/09 02:40:45;;;;;;;18.90;12.00;;;5.60;99.90;;;;;;5078693;28;20237;-74
2023/01/09 02:43:12;;;;;;;17.47;11.60;;;5.60;99.90;;;;;;5078581;28;20218;-74
2023/01/09 02:45:38;;;;;;;18.23;12.13;;;5.50;99.90;;;;;;5080532;28;20213;-74
2023/01/09 02:48:04;;;;;;;17.70;12.17;;;5.50;99.90;;;;;;5057624;28;20179;-74
2023/01/09 02:50:38;;;;;;;17.93;11.13;;;5.50;99.90;;;;;;5080004;28;20203;-74
2023/01/09 02:53:19;;;;;;;16.77;11.37;;;5.60;99.90;;;;;;5042961;28;20222;-73
2023/01/09 02:56:16;;;;;;;16.57;10.80;;;5.50;99.90;;;;;;5052012;28;20205;-74
2023/01/09 02:59:03;;;;;;;17.73;11.93;;;5.50;99.90;;;;;;5060582;28;20734;-74
2023/01/09 03:01:57;;;;;;;16.90;11.43;;;5.50;99.90;;;;;;5077234;28;20214;-74
2023/01/09 03:04:33;;;;;;;20.40;12.30;;;5.50;99.90;;;;;;5059505;28;20280;-73
2023/01/09 03:07:19;;;;;;;17.57;11.30;;;5.50;99.90;;;;;;5059822;28;20645;-73
2023/01/09 03:09:47;;;;;;;18.20;12.80;;;5.50;99.90;;;;;;5053556;28;20232;-74
2023/01/09 03:12:18;;;;;;;20.37;13.23;;;5.50;99.90;;;;;;5080155;28;20562;-74
2023/01/09 03:14:49;;;;;;;18.57;11.90;;;5.50;99.90;;;;;;5079078;28;20177;-73
2023/01/09 03:17:21;;;;;;;16.53;12.20;;;5.40;99.90;;;;;;5079537;28;20205;-73
2023/01/09 03:19:49;;;;;;;18.27;11.80;;;5.40;99.90;;;;;;5078296;28;20231;-73
2023/01/09 03:22:15;;;;;;;19.37;12.53;;;5.40;99.90;;;;;;5056779;28;20226;-74
2023/01/09 03:24:40;;;;;;;18.80;12.57;;;5.40;99.90;;;;;;5062694;28;20214;-73
2023/01/09 03:27:08;;;;;;;19.37;12.70;;;5.40;99.90;;;;;;5059640;28;20185;-73
2023/01/09 03:29:34;;;;;;;19.13;13.13;;;5.50;99.90;;;;;;5052025;28;20217;-73
2023/01/09 03:31:59;;;;;;;18.93;12.40;;;5.50;99.90;;;;;;5056006;28;20229;-73
2023/01/09 03:34:25;;;;;;;20.63;13.03;;;5.60;99.90;;;;;;5071250;28;20287;-74
2023/01/09 03:36:51;;;;;;;20.67;12.63;;;5.60;99.90;;;;;;5059492;28;20214;-74
2023/01/09 03:39:16;;;;;;;18.00;12.70;;;5.60;99.90;;;;;;5076737;28;20178;-74
2023/01/09 03:41:42;;;;;;;19.33;12.23;;;5.70;99.90;;;;;;5071993;28;20229;-73
2023/01/09 03:44:07;;;;;;;19.53;12.57;;;5.70;99.90;;;;;;5052883;28;20261;-74
2023/01/09 03:46:33;;;;;;;17.80;12.20;;;5.70;99.90;;;;;;5079358;28;20283;-73
2023/01/09 03:48:59;;;;;;;19.47;13.37;;;5.70;99.90;;;;;;5070163;28;20262;-74
2023/01/09 03:51:24;;;;;;;17.10;12.13;;;5.70;99.90;;;;;;5060357;28;20198;-74
2023/01/09 03:53:50;;;;;;;17.93;12.43;;;5.70;99.90;;;;;;5077975;28;20674;-74
2023/01/09 03:56:15;;;;;;;18.23;12.33;;;5.70;99.90;;;;;;5070001;28;20203;-73
2023/01/09 03:58:41;;;;;;;19.73;13.03;;;5.80;99.90;;;;;;5074510;28;20695;-74
2023/01/09 04:01:12;;;;;;;18.60;12.17;;;5.80;99.90;;;;;;5078521;28;20757;-74
2023/01/09 04:03:38;;;;;;;16.50;12.70;;;5.80;99.90;;;;;;5080487;28;20217;-73
2023/01/09 04:06:05;;;;;;;19.87;13.57;;;5.80;99.90;;;;;;5079737;28;20175;-74
2023/01/09 04:08:30;;;;;;;18.43;12.70;;;5.90;99.90;;;;;;5075381;28;20600;-74
2023/01/09 04:10:56;;;;;;;22.87;13.83;;;5.90;99.90;;;;;;5058330;28;20260;-74
2023/01/09 04:13:22;;;;;;;19.87;12.87;;;5.90;99.90;;;;;;5083153;28;20293;-73
2023/01/09 04:15:47;;;;;;;18.97;12.83;;;5.90;99.90;;;;;;5074792;28;20229;-74
2023/01/09 04:18:14;;;;;;;19.53;13.23;;;6.00;99.90;;;;;;5077025;28;20172;-74
2023/01/09 04:20:40;;;;;;;20.23;13.50;;;6.00;99.90;;;;;;5082619;28;20712;-74
2023/01/09 04:23:06;;;;;;;17.17;12.63;;;6.00;99.90;;;;;;5075264;23;20227;-77
2023/01/09 04:25:31;;;;;;;17.53;12.70;;;6.00;99.90;;;;;;5083114;28;20657;-77
2023/01/09 04:27:57;;;;;;;17.93;13.13;;;6.00;99.90;;;;;;5053360;28;20203;-77
2023/01/09 04:30:23;;;;;;;20.00;13.63;;;6.00;99.90;;;;;;5053490;28;20198;-75
2023/01/09 04:32:49;;;;;;;20.83;13.33;;;6.00;99.90;;;;;;5046596;28;20195;-77
2023/01/09 04:35:15;;;;;;;20.57;12.80;;;6.00;99.90;;;;;;5060576;28;20277;-77
2023/01/09 04:37:40;;;;;;;17.70;12.77;;;6.00;99.90;;;;;;5057777;28;20630;-77
2023/01/09 04:40:10;;;;;;;18.90;12.60;;;6.00;99.90;;;;;;5067264;28;20190;-77
2023/01/09 04:42:40;;;;;;;20.50;13.23;;;6.00;99.90;;;;;;5059851;28;20208;-78
2023/01/09 04:45:07;;;;;;;19.87;13.53;;;6.00;99.90;;;;;;5044598;28;20183;-76
2023/01/09 04:47:33;;;;;;;20.50;12.20;;;6.00;99.90;;;;;;5042332;28;20665;-77
2023/01/09 04:49:59;;;;;;;20.13;13.47;;;6.10;99.90;;;;;;5062373;28;20289;-77
2023/01/09 04:52:25;;;;;;;19.80;14.03;;;6.10;99.90;;;;;;5056572;28;20269;-77
2023/01/09 04:54:50;;;;;;;23.00;12.90;;;6.00;99.90;;;;;;5061312;28;20696;-76
2023/01/09 04:57:16;;;;;;;18.57;12.47;;;6.00;99.90;;;;;;5063774;28;20292;-78
2023/01/09 04:59:42;;;;;;;22.03;13.27;;;6.10;99.90;;;;;;5046460;28;20549;-78
2023/01/09 05:02:08;;;;;;;19.13;11.77;;;6.00;99.90;;;;;;5059253;28;20203;-77
2023/01/09 05:04:34;;;;;;;19.13;12.30;;;6.00;99.90;;;;;;5057903;28;20216;-77
2023/01/09 05:06:59;;;;;;;18.57;12.40;;;6.10;99.90;;;;;;5054244;28;20203;-78
2023/01/09 05:09:25;;;;;;;20.43;13.20;;;6.10;99.90;;;;;;5061105;28;20175;-75
2023/01/09 05:11:51;;;;;;;19.97;13.17;;;6.10;99.90;;;;;;5040931;28;20174;-77
2023/01/09 05:14:16;;;;;;;20.80;12.90;;;6.20;99.90;;;;;;5054300;28;20286;-77
2023/01/09 05:16:42;;;;;;;21.00;13.37;;;6.20;99.90;;;;;;5059838;28;20204;-78
2023/01/09 05:19:08;;;;;;;18.63;12.70;;;6.20;99.90;;;;;;5053934;28;20237;-77
2023/01/09 05:21:33;;;;;;;21.20;13.00;;;6.20;99.90;;;;;;5056140;28;20199;-78
2023/01/09 05:23:59;;;;;;;19.90;13.33;;;6.10;99.90;;;;;;5059229;28;20242;-78
2023/01/09 05:26:25;;;;;;;23.63;13.67;;;6.20;99.90;;;;;;5045373;28;20248;-78
2023/01/09 05:28:51;;;;;;;18.27;12.97;;;6.20;99.90;;;;;;5060527;28;20256;-76
2023/01/09 05:31:18;;;;;;;19.43;11.90;;;6.20;99.90;;;;;;5054355;28;20199;-77
2023/01/09 05:33:44;;;;;;;18.40;12.70;;;6.20;99.90;;;;;;5056535;28;20211;-78
2023/01/09 05:36:09;;;;;;;20.40;12.97;;;6.20;99.90;;;;;;5058316;28;20741;-77
2023/01/09 05:38:35;;;;;;;20.33;12.00;;;6.20;99.90;;;;;;5057172;28;20638;-77
2023/01/09 05:41:01;;;;;;;22.30;13.93;;;6.20;99.90;;;;;;5052027;28;20238;-77
2023/01/09 05:43:26;;;;;;;21.23;12.63;;;6.20;99.90;;;;;;5061729;28;20294;-77
2023/01/09 05:45:52;;;;;;;19.07;12.33;;;6.20;99.90;;;;;;5063654;28;20207;-78
2023/01/09 05:48:17;;;;;;;21.30;12.80;;;6.20;99.90;;;;;;5044677;28;20305;-77
2023/01/09 05:50:43;;;;;;;17.40;12.10;;;6.20;99.90;;;;;;5062329;28;20167;-78
2023/01/09 05:53:09;;;;;;;20.10;13.33;;;6.30;99.90;;;;;;5063334;28;20575;-76
2023/01/09 05:55:34;;;;;;;20.20;13.60;;;6.30;99.90;;;;;;5062592;28;20576;-77
2023/01/09 05:58:00;;;;;;;22.40;12.83;;;6.30;99.90;;;;;;5062123;28;20203;-77
2023/01/09 06:00:26;;;;;;;16.63;11.90;;;6.30;99.90;;;;;;5063965;28;20181;-76
2023/01/09 06:02:51;;;;;;;17.87;12.10;;;6.30;99.90;;;;;;5051705;28;20533;-77
2023/01/09 06:05:17;;;;;;;20.93;14.03;;;6.30;99.90;;;;;;5061108;28;20195;-75
2023/01/09 06:07:43;;;;;;;21.83;13.87;;;6.30;99.90;;;;;;5050363;28;20634;-77
2023/01/09 06:10:13;;;;;;;18.17;12.00;;;6.30;99.90;;;;;;5060498;28;20198;-77
2023/01/09 06:12:39;;;;;;;19.77;12.93;;;6.30;99.90;;;;;;5048291;28;20203;-76
2023/01/09 06:15:05;;;;;;;21.93;13.63;;;6.30;99.90;;;;;;5038996;28;20186;-77
2023/01/09 06:17:31;;;;;;;20.17;13.27;;;6.30;99.90;;;;;;5062240;28;20204;-76
2023/01/09 06:19:56;;;;;;;19.57;13.67;;;6.30;99.90;;;;;;5043951;28;20256;-75
2023/01/09 06:22:22;;;;;;;19.37;13.53;;;6.30;99.90;;;;;;5059270;28;20249;-77
2023/01/09 06:24:47;;;;;;;19.93;13.37;;;6.30;99.90;;;;;;5064106;28;20207;-78
2023/01/09 06:27:13;;;;;;;23.60;14.13;;;6.30;99.90;;;;;;5059730;28;20195;-78
2023/01/09 06:29:39;;;;;;;20.93;13.50;;;6.30;99.90;;;;;;5059265;28;20163;-78
2023/01/09 06:32:05;;;;;;;22.50;13.93;;;6.30;99.90;;;;;;5063503;28;20208;-78
2023/01/09 06:34:30;;;;;;;21.27;13.33;;;6.30;99.90;;;;;;5065153;28;20226;-78
2023/01/09 06:36:56;;;;;;;22.33;13.90;;;6.30;99.90;;;;;;5059451;28;20226;-78
2023/01/09 06:39:22;;;;;;;22.67;13.23;;;6.30;99.90;;;;;;5050210;28;20697;-78
2023/01/09 06:41:47;;;;;;;22.03;13.50;;;6.30;99.90;;;;;;5063928;28;20207;-78
2023/01/09 06:44:13;;;;;;;22.27;15.03;;;6.30;99.90;;;;;;5074321;28;20712;-78
2023/01/09 06:46:39;;;;;;;21.13;13.77;;;6.30;99.90;;;;;;5082756;28;20198;-77
2023/01/09 06:49:04;;;;;;;19.77;13.17;;;6.30;99.90;;;;;;5062037;28;20256;-76
2023/01/09 06:51:30;;;;;;;23.27;13.90;;;6.30;99.90;;;;;;5078612;28;20214;-77
2023/01/09 06:53:56;;;;;;;21.57;13.70;;;6.30;99.90;;;;;;5078826;28;20225;-77
2023/01/09 06:56:21;;;;;;;21.57;13.97;;;6.30;99.90;;;;;;5070125;28;20204;-77
2023/01/09 06:58:47;;;;;;;24.50;14.47;;;6.30;99.90;;;;;;5081656;28;20206;-77
2023/01/09 07:01:13;;;;;;;23.23;13.97;;;6.30;99.90;;;;;;5084769;28;20207;-77
2023/01/09 07:03:39;;;;;;;22.80;15.17;;;6.30;99.90;;;;;;5065194;28;20238;-76
2023/01/09 07:06:05;;;;;;;26.60;14.23;;;6.20;99.90;;;;;;5079471;28;20676;-75
2023/01/09 07:08:30;;;;;;;19.57;12.63;;;6.20;99.90;;;;;;5084302;28;20201;-75
2023/01/09 07:10:56;;;;;;;23.37;14.90;;;6.20;99.90;;;;;;5077846;28;20198;-77
2023/01/09 07:13:22;;;;;;;23.90;14.43;;;6.20;99.90;;;;;;5085140;28;20572;-76
2023/01/09 07:15:48;;;;;;;24.47;15.20;;;6.20;99.90;;;;;;5079972;28;20665;-77
2023/01/09 07:18:14;;;;;;;22.70;14.70;;;6.20;99.90;;;;;;5078735;28;20195;-77
2023/01/09 07:20:40;;;;;;;25.07;14.30;;;6.20;99.90;;;;;;5066317;28;20170;-77
2023/01/09 07:23:11;;;;;;;23.80;14.90;;;6.30;99.90;;;;;;5085992;28;20222;-77
2023/01/09 07:25:37;;;;;;;22.70;14.40;;;6.30;99.90;;;;;;5081596;28;20791;-78
2023/01/09 07:28:03;;;;;;;25.33;14.83;;;6.30;99.90;;;;;;5068738;28;20283;-77
2023/01/09 07:30:29;;;;;;;22.90;14.13;;;6.30;99.90;;;;;;5082863;28;20907;-77
2023/01/09 07:32:54;;;;;;;27.73;14.83;;;6.30;99.90;;;;;;5085580;28;20189;-77
2023/01/09 07:35:20;;;;;;;23.73;14.43;;;6.30;99.90;;;;;;5085414;28;20214;-77
2023/01/09 07:37:46;;;;;;;23.60;14.07;;;6.30;99.90;;;;;;5083118;28;20202;-77
2023/01/09 07:40:12;;;;;;;23.17;15.00;;;6.20;99.90;;;;;;5081144;28;20539;-76
2023/01/09 07:42:38;;;;;;;23.63;15.27;;;6.30;99.90;;;;;;5090203;28;20232;-78
2023/01/09 07:45:05;;;;;;;25.73;15.43;;;6.30;99.90;;;;;;5065791;28;20206;-77
2023/01/09 07:47:30;;;;;;;23.97;15.33;;;6.30;99.90;;;;;;5092626;28;20570;-76
2023/01/09 07:49:56;;;;;;;24.00;14.90;;;6.30;99.90;;;;;;5079027;28;20213;-76
2023/01/09 07:52:21;;;;;;;23.47;14.43;;;6.30;99.90;;;;;;5083573;28;20267;-77
2023/01/09 07:54:47;;;;;;;23.37;15.63;;;6.40;99.90;;;;;;5086714;28;20220;-76
2023/01/09 07:57:13;;;;;;;24.27;14.90;;;6.40;99.90;;;;;;5083533;28;20171;-76
2023/01/09 07:59:38;;;;;;;25.40;14.73;;;6.40;99.90;;;;;;5087172;28;20190;-76
2023/01/09 08:02:05;;;;;;;25.57;15.00;;;6.40;99.90;;;;;;5090920;28;20286;-77
2023/01/09 08:04:31;;;;;;;23.63;15.37;;;6.40;99.90;;;;;;5072024;28;20286;-76
2023/01/09 08:06:57;;;;;;;22.83;15.27;;;6.40;99.90;;;;;;5090322;28;20207;-77
2023/01/09 08:09:22;;;;;;;22.43;14.93;;;6.50;99.90;;;;;;5087563;28;20648;-77
2023/01/09 08:11:49;;;;;;;20.63;14.43;;;6.50;99.90;;;;;;5075175;28;20174;-76
2023/01/09 08:14:15;;;;;;;24.70;14.60;;;6.50;99.90;;;;;;5085052;28;20210;-76
2023/01/09 08:16:41;;;;;;;23.30;14.40;;;6.50;99.90;;;;;;5083025;28;20544;-77
2023/01/09 08:19:07;;;;;;;22.10;13.57;;;6.50;99.90;;;;;;5087271;28;20207;-75
2023/01/09 08:21:32;;;;;;;23.87;14.83;;;6.50;99.90;;;;;;5085872;28;20225;-76
2023/01/09 08:23:58;;;;;;;21.77;14.17;;;6.50;99.90;;;;;;5084682;28;20261;-76
2023/01/09 08:26:24;;;;;;;23.97;15.33;;;6.60;99.90;;;;;;5086035;28;20223;-77
2023/01/09 08:28:49;;;;;;;21.30;13.77;;;6.60;99.90;;;;;;5082175;28;20564;-77
2023/01/09 08:31:15;;;;;;;22.57;13.60;;;6.50;99.90;;;;;;5073297;28;20675;-76
2023/01/09 08:33:41;;;;;;;25.23;14.63;;;6.60;99.90;;;;;;5091796;28;20218;-76
2023/01/09 08:36:07;;;;;;;24.30;14.90;;;6.60;99.90;;;;;;5052530;28;20191;-75
2023/01/09 08:38:32;;;;;;;22.80;14.37;;;6.60;99.90;;;;;;5065401;28;20228;-77
2023/01/09 08:40:58;;;;;;;22.17;14.17;;;6.70;99.90;;;;;;5052834;28;20214;-77
2023/01/09 08:49:12;;;;;;;23.43;14.10;;;6.80;99.90;;;;;;5085138;28;20261;-78
2023/01/09 08:51:38;;;;;;;23.97;14.60;;;6.70;99.90;;;;;;5081563;28;20254;-77
2023/01/09 08:54:04;;;;;;;21.70;14.07;;;6.70;99.90;;;;;;5085805;28;20301;-76
2023/01/09 08:56:29;;;;;;;23.93;14.63;;;6.70;99.90;;;;;;5070154;28;20211;-77
2023/01/09 08:58:55;;;;;;;22.20;15.13;;;6.80;99.90;;;;;;5085215;28;20213;-77
2023/01/09 09:01:20;;;;;;;25.60;14.60;;;6.70;99.90;;;;;;5086783;28;20242;-77
2023/01/09 09:03:46;;;;;;;26.90;15.23;;;6.80;99.90;;;;;;5084632;28;20231;-77
2023/01/09 09:06:12;;;;;;;21.73;14.10;;;6.90;99.90;;;;;;5086155;28;20215;-76
2023/01/09 09:08:37;;;;;;;23.33;13.53;;;6.90;99.90;;;;;;5084414;28;20195;-77
2023/01/09 09:11:03;;;;;;;22.00;13.27;;;7.00;99.90;;;;;;5082307;28;20206;-77
2023/01/09 09:13:28;;;;;;;25.33;14.13;;;7.00;99.90;;;;;;5082880;28;20709;-77
2023/01/09 09:15:54;;;;;;;22.97;13.63;;;7.10;99.90;;;;;;5081150;28;20223;-76
2023/01/09 09:18:19;;;;;;;22.77;14.23;;;7.00;99.90;;;;;;5084803;28;20229;-77
2023/01/09 09:20:45;;;;;;;23.93;13.60;;;7.10;99.90;;;;;;5068933;28;20198;-77
2023/01/09 09:23:11;;;;;;;25.50;14.00;;;7.10;99.90;;;;;;5082773;28;20218;-77
2023/01/09 09:25:39;;;;;;;22.60;13.57;;;7.30;99.90;;;;;;5081015;28;20637;-77
2023/01/09 09:28:05;;;;;;;24.57;12.93;;;7.20;99.90;;;;;;5084922;28;20226;-76
2023/01/09 09:30:31;;;;;;;19.73;13.40;;;7.20;99.90;;;;;;5084660;28;20714;-77
2023/01/09 09:32:57;;;;;;;22.70;12.77;;;7.20;99.90;;;;;;5066642;28;20581;-77
2023/01/09 09:35:22;;;;;;;21.60;13.30;;;7.20;99.90;;;;;;5068720;28;20590;-76
2023/01/09 09:38:02;;;;;;;21.87;13.80;;;7.30;99.90;;;;;;5087277;28;20211;-76
2023/01/09 09:41:04;;;;;;;20.90;13.90;;;7.40;99.90;;;;;;5073012;28;20300;-76
2023/01/09 09:46:40;;;;;;;19.43;12.27;;;7.50;99.90;;;;;;5086528;28;20643;-75
2023/01/09 09:49:15;;;;;;;18.67;12.33;;;7.50;99.90;;;;;;5083361;28;20210;-75
2023/01/09 09:51:50;;;;;;;20.43;11.90;;;7.60;99.90;;;;;;5070550;28;20209;-75
2023/01/09 09:54:47;;;;;;;17.80;11.67;;;7.70;99.90;;;;;;5072012;28;20201;-75
2023/01/09 09:57:20;;;;;;;17.67;10.80;;;7.90;99.90;;;;;;5074426;28;20187;-74
2023/01/09 09:59:50;;;;;;;17.80;11.53;;;7.90;99.90;;;;;;5086026;28;20178;-75
2023/01/09 10:02:31;;;;;;;19.30;12.03;;;8.00;99.90;;;;;;5084291;28;20219;-75
2023/01/09 10:05:15;;;;;;;18.13;10.60;;;8.00;99.90;;;;;;5095864;28;20470;-75
2023/01/09 10:07:47;;;;;;;17.73;10.57;;;8.00;99.90;;;;;;5087830;28;20210;-74
2023/01/09 10:10:27;;;;;;;14.30;9.93;;;8.10;99.90;;;;;;5065785;28;20305;-76
2023/01/09 10:12:56;;;;;;;15.30;9.90;;;8.10;99.90;;;;;;5084953;28;20216;-75
2023/01/09 10:15:44;;;;;;;15.70;11.10;;;8.20;99.90;;;;;;5082104;28;20191;-74
2023/01/09 10:18:49;;;;;;;14.10;9.60;;;8.20;99.90;;;;;;5066609;28;20551;-75
2023/01/09 10:21:52;;;;;;;14.83;9.47;;;8.30;99.90;;;;;;5084872;28;20179;-75
2023/01/09 10:24:37;;;;;;;14.47;9.83;;;8.40;99.90;;;;;;5084939;28;20224;-77
2023/01/09 10:27:16;;;;;;;15.13;10.40;;;8.30;99.90;;;;;;5035176;28;20251;-76
2023/01/09 10:29:56;;;;;;;14.30;10.13;;;8.40;99.90;;;;;;5063159;28;20202;-76
2023/01/09 10:32:46;;;;;;;14.33;9.63;;;8.40;99.90;;;;;;5071254;28;20207;-75
2023/01/09 10:35:30;;;;;;;17.97;9.40;;;8.40;99.90;;;;;;5058362;28;20215;-76
2023/01/09 10:37:57;;;;;;;14.20;8.70;;;8.40;99.90;;;;;;5086240;28;20205;-74
2023/01/09 10:40:23;;;;;;;12.60;8.13;;;8.40;99.90;;;;;;5066521;28;20210;-75
2023/01/09 10:42:54;;;;;;;12.57;8.27;;;8.30;99.90;;;;;;5069330;28;20218;-76
2023/01/09 10:45:37;;;;;;;12.13;7.13;;;8.40;99.90;;;;;;5079018;28;20194;-75
2023/01/09 10:48:30;;;;;;;10.00;7.33;;;8.40;99.90;;;;;;5085038;28;20257;-75
2023/01/09 10:50:58;;;;;;;12.33;8.77;;;8.40;99.90;;;;;;5080923;28;20223;-76
2023/01/09 10:53:33;;;;;;;11.70;7.43;;;8.40;99.90;;;;;;5066234;28;20227;-75
2023/01/09 10:56:14;;;;;;;12.20;7.80;;;8.40;99.90;;;;;;5061904;28;20267;-75
2023/01/09 10:58:40;;;;;;;11.20;7.30;;;8.40;99.90;;;;;;5067018;28;20207;-76
2023/01/09 11:01:07;;;;;;;11.40;6.67;;;8.40;99.90;;;;;;5067256;28;20590;-75
2023/01/09 11:03:33;;;;;;;9.77;7.23;;;8.40;99.90;;;;;;5085165;28;20222;-76
2023/01/09 11:06:00;;;;;;;12.57;7.30;;;8.40;99.90;;;;;;5065839;28;20680;-73
2023/01/09 11:08:40;;;;;;;11.73;8.30;;;8.50;99.90;;;;;;5089621;28;20206;-73
2023/01/09 11:11:08;;;;;;;10.50;6.53;;;8.60;99.90;;;;;;5084218;28;20224;-74
2023/01/09 11:13:37;;;;;;;8.70;6.23;;;8.60;99.90;;;;;;5077380;28;20206;-74
2023/01/09 11:16:08;;;;;;;9.57;6.63;;;8.60;99.90;;;;;;5070841;28;20605;-74
2023/01/09 11:18:39;;;;;;;10.20;6.43;;;8.70;99.90;;;;;;5080187;28;20210;-73
2023/01/09 11:21:26;;;;;;;9.27;5.50;;;8.60;99.90;;;;;;5070736;28;20209;-76
2023/01/09 11:23:53;;;;;;;11.00;6.60;;;8.60;99.90;;;;;;5072494;28;20253;-76
2023/01/09 11:26:27;;;;;;;7.77;5.90;;;8.50;99.90;;;;;;5059533;28;20779;-75
2023/01/09 11:29:14;;;;;;;8.30;5.30;;;8.50;99.90;;;;;;5075486;23;20656;-72
2023/01/09 11:31:41;;;;;;;7.07;5.17;;;8.40;99.90;;;;;;5056642;28;20326;-73
2023/01/09 11:34:27;;;;;;;7.23;5.27;;;8.40;99.90;;;;;;5065844;28;20245;-75
2023/01/09 11:37:00;;;;;;;7.13;4.90;;;8.40;99.90;;;;;;5063974;28;20202;-71
2023/01/09 11:39:29;;;;;;;6.30;4.83;;;8.40;99.90;;;;;;5056800;28;20758;-75
2023/01/09 11:42:01;;;;;;;6.90;4.90;;;8.50;99.90;;;;;;5056254;28;20194;-73
2023/01/09 11:44:29;;;;;;;7.67;4.90;;;8.50;99.90;;;;;;5071150;28;20579;-74
2023/01/09 11:46:55;;;;;;;6.07;4.10;;;8.60;99.90;;;;;;5074822;28;20295;-71
2023/01/09 11:49:23;;;;;;;9.87;4.97;;;8.60;99.90;;;;;;5076065;28;20231;-72
2023/01/09 11:52:10;;;;;;;6.57;4.27;;;8.60;99.90;;;;;;5076849;28;20213;-74
2023/01/09 11:54:39;;;;;;;6.27;4.73;;;8.70;99.90;;;;;;5075585;28;20213;-75
2023/01/09 11:57:07;;;;;;;8.63;4.67;;;8.60;99.90;;;;;;5057850;28;20184;-75
2023/01/09 11:59:32;;;;;;;8.80;5.00;;;8.60;99.90;;;;;;5078938;28;20222;-76
2023/01/09 12:02:24;;;;;;;5.83;4.07;;;8.60;99.90;;;;;;5077231;28;20233;-75
2023/01/09 12:05:18;;;;;;;7.90;4.10;;;8.70;99.90;;;;;;5072251;28;20219;-76
2023/01/09 12:08:08;;;;;;;5.57;3.63;;;8.80;99.90;;;;;;5076485;28;20214;-75
2023/01/09 12:10:44;;;;;;;6.93;4.73;;;9.00;99.90;;;;;;5079373;28;20226;-75
2023/01/09 12:13:33;;;;;;;10.13;3.47;;;9.20;99.90;;;;;;5073908;28;20289;-76
2023/01/09 12:16:08;;;;;;;3.83;3.00;;;9.40;99.90;;;;;;5075168;28;20207;-76
2023/01/09 12:18:45;;;;;;;6.13;3.23;;;9.70;99.90;;;;;;5070434;28;20297;-77
2023/01/09 12:21:34;;;;;;;4.50;2.90;;;9.80;99.90;;;;;;5057103;28;20280;-75
2023/01/09 12:24:19;;;;;;;9.53;3.43;;;9.80;99.90;;;;;;5076052;28;20567;-75
2023/01/09 12:27:12;;;;;;;7.33;3.67;;;9.80;99.90;;;;;;5082767;28;20689;-75
2023/01/09 12:29:46;;;;;;;5.00;3.23;;;9.70;99.90;;;;;;5083279;28;20233;-76
2023/01/09 12:32:36;;;;;;;5.63;3.03;;;9.70;99.90;;;;;;5082541;28;20700;-76
2023/01/09 12:35:20;;;;;;;6.20;2.63;;;9.60;99.90;;;;;;5078251;28;20595;-75
2023/01/09 12:37:46;;;;;;;5.10;2.60;;;9.60;99.90;;;;;;5069062;28;20261;-74
2023/01/09 12:40:14;;;;;;;5.63;2.57;;;9.50;99.90;;;;;;5080179;28;21503;-74
2023/01/09 12:43:07;;;;;;;7.13;3.00;;;9.60;99.90;;;;;;5080793;28;20581;-75
2023/01/09 12:45:52;;;;;;;11.80;3.43;;;9.60;99.90;;;;;;5080057;28;20210;-76
2023/01/09 12:48:42;;;;;;;6.30;3.10;;;9.50;99.90;;;;;;5080506;28;20738;-72
2023/01/09 12:51:22;;;;;;;6.43;2.80;;;9.50;99.90;;;;;;5079268;28;20222;-71
2023/01/09 12:54:00;;;;;;;3.97;3.03;;;9.40;99.90;;;;;;5079483;28;20330;-72
2023/01/09 12:56:40;;;;;;;6.03;2.47;;;9.30;99.90;;;;;;5073843;28;20724;-73
2023/01/09 12:59:29;;;;;;;3.63;2.47;;;9.20;99.90;;;;;;5060399;28;20208;-74
2023/01/09 13:02:14;;;;;;;5.20;2.43;;;9.10;99.90;;;;;;5068022;28;20264;-73
2023/01/09 13:04:54;;;;;;;5.60;2.57;;;9.10;99.90;;;;;;5076867;28;20280;-76
2023/01/09 13:07:25;;;;;;;5.33;2.80;;;9.10;99.90;;;;;;5078871;28;20208;-75
2023/01/09 13:10:13;;;;;;;5.40;2.67;;;9.10;99.90;;;;;;5081556;28;20298;-75
2023/01/09 13:12:41;;;;;;;9.23;3.50;;;9.00;99.90;;;;;;5075070;28;20264;-75